KBLF/BLF METAR and TAF weather

Enter ICAO airport designator
Station Type Date Time Source
KBLF METAR 2019/06/17 06:52 UTC NOAA

KBLF 170652Z AUTO 13003KT 10SM BKN038 OVC050 18/17 A3008 RMK AO2 SLP148 T01830167


Station Type Date Time Source
KBLF Decoded METAR 2019/06/17 06:52 UTC NOAA

BLUEFIELD MERCER COUNTY AIRPORT , WV, United States (KBLF) 37-18N 081-12W 873M
Jun 17, 2019 - 02:52 AM EDT / 2019.06.17 0652 UTC
Wind: from the SE (130 degrees) at 3 MPH (3 KT):0
Visibility: 10 mile(s):0
Sky conditions: overcast
Temperature: 64.9 F (18.3 C)
Dew Point: 62.1 F (16.7 C)
Relative Humidity: 90%
Pressure (altimeter): 30.08 in. Hg (1018 hPa)
ob: KBLF 170652Z AUTO 13003KT 10SM BKN038 OVC050 18/17 A3008 RMK AO2 SLP148 T01830167
cycle: 7

Station Type Date Time Source
KBLF TAF 2019/06/17 07:03 UTC NOAA

TAF
AMD KBLF 170700Z 1707/1806 24005KT P6SM BKN035 BKN150
FM171600 26005KT P6SM VCTS SCT060CB BKN120
FM180000 VRB03KT P6SM BKN050

Example: see airport list